sensor_id;sensor_type;location;lat;lon;timestamp;temperature;humidity
770;DHT22;368;48.698;9.116;2023-04-01T00:02:05;7.50;99.90
770;DHT22;368;48.698;9.116;2023-04-01T00:04:31;7.60;99.90
770;DHT22;368;48.698;9.116;2023-04-01T00:06:58;7.60;99.90
770;DHT22;368;48.698;9.116;2023-04-01T00:09:28;7.70;99.90
770;DHT22;368;48.698;9.116;2023-04-01T00:11:55;7.80;99.90
770;DHT22;368;48.698;9.116;2023-04-01T00:14:22;7.60;99.90
770;DHT22;368;48.698;9.116;2023-04-01T00:16:49;7.60;99.90
770;DHT22;368;48.698;9.116;2023-04-01T00:19:16;7.70;99.90
770;DHT22;368;48.698;9.116;2023-04-01T00:21:42;7.50;99.90
770;DHT22;368;48.698;9.116;2023-04-01T00:24:09;7.50;99.90
770;DHT22;368;48.698;9.116;2023-04-01T00:26:38;7.50;99.90
770;DHT22;368;48.698;9.116;2023-04-01T00:29:06;7.60;99.90
770;DHT22;368;48.698;9.116;2023-04-01T00:31:33;7.60;99.90
770;DHT22;368;48.698;9.116;2023-04-01T00:34:00;7.60;99.90
770;DHT22;368;48.698;9.116;2023-04-01T00:36:26;7.70;99.90
770;DHT22;368;48.698;9.116;2023-04-01T00:38:53;7.50;99.90
770;DHT22;368;48.698;9.116;2023-04-01T00:41:21;7.60;99.90
770;DHT22;368;48.698;9.116;2023-04-01T00:43:50;7.70;99.90
770;DHT22;368;48.698;9.116;2023-04-01T00:46:17;7.90;99.90
770;DHT22;368;48.698;9.116;2023-04-01T00:48:48;7.80;99.90
770;DHT22;368;48.698;9.116;2023-04-01T00:51:18;7.70;99.90
770;DHT22;368;48.698;9.116;2023-04-01T00:53:48;7.60;99.90
770;DHT22;368;48.698;9.116;2023-04-01T00:56:19;7.60;99.90
770;DHT22;368;48.698;9.116;2023-04-01T00:58:54;7.80;99.90
770;DHT22;368;48.698;9.116;2023-04-01T01:01:24;7.90;99.90
770;DHT22;368;48.698;9.116;2023-04-01T01:03:51;7.70;99.90
770;DHT22;368;48.698;9.116;2023-04-01T01:06:25;7.80;99.90
770;DHT22;368;48.698;9.116;2023-04-01T01:09:12;7.70;99.90
770;DHT22;368;48.698;9.116;2023-04-01T01:11:42;7.70;99.90
770;DHT22;368;48.698;9.116;2023-04-01T01:14:21;7.60;99.90
770;DHT22;368;48.698;9.116;2023-04-01T01:16:54;7.60;99.90
770;DHT22;368;48.698;9.116;2023-04-01T01:19:52;7.80;99.90
770;DHT22;368;48.698;9.116;2023-04-01T01:22:44;7.60;99.90
770;DHT22;368;48.698;9.116;2023-04-01T01:25:29;7.80;99.90
770;DHT22;368;48.698;9.116;2023-04-01T01:28:07;7.70;99.90
770;DHT22;368;48.698;9.116;2023-04-01T01:30:46;7.70;99.90
770;DHT22;368;48.698;9.116;2023-04-01T01:33:48;7.70;99.90
770;DHT22;368;48.698;9.116;2023-04-01T01:36:18;7.60;99.90
770;DHT22;368;48.698;9.116;2023-04-01T01:38:48;7.60;99.90
770;DHT22;368;48.698;9.116;2023-04-01T01:41:18;7.80;99.90
770;DHT22;368;48.698;9.116;2023-04-01T01:43:48;7.80;99.90
770;DHT22;368;48.698;9.116;2023-04-01T01:46:19;7.70;99.90
770;DHT22;368;48.698;9.116;2023-04-01T01:48:47;7.80;99.90
770;DHT22;368;48.698;9.116;2023-04-01T01:51:18;7.70;99.90
770;DHT22;368;48.698;9.116;2023-04-01T01:53:45;7.70;99.90
770;DHT22;368;48.698;9.116;2023-04-01T01:56:12;7.70;99.90
770;DHT22;368;48.698;9.116;2023-04-01T01:58:42;7.50;99.90
770;DHT22;368;48.698;9.116;2023-04-01T02:01:13;7.60;99.90
770;DHT22;368;48.698;9.116;2023-04-01T02:03:42;7.50;99.90
770;DHT22;368;48.698;9.116;2023-04-01T02:06:13;7.60;99.90
770;DHT22;368;48.698;9.116;2023-04-01T02:08:45;7.70;99.90
770;DHT22;368;48.698;9.116;2023-04-01T02:11:16;7.50;99.90
770;DHT22;368;48.698;9.116;2023-04-01T02:13:49;7.60;99.90
770;DHT22;368;48.698;9.116;2023-04-01T02:16:21;7.60;99.90
770;DHT22;368;48.698;9.116;2023-04-01T02:18:52;7.40;99.90
770;DHT22;368;48.698;9.116;2023-04-01T02:21:22;7.40;99.90
770;DHT22;368;48.698;9.116;2023-04-01T02:23:53;7.30;99.90
770;DHT22;368;48.698;9.116;2023-04-01T02:26:22;7.60;99.90
770;DHT22;368;48.698;9.116;2023-04-01T02:28:51;7.50;99.90
770;DHT22;368;48.698;9.116;2023-04-01T02:31:19;7.40;99.90
770;DHT22;368;48.698;9.116;2023-04-01T02:33:47;7.40;99.90
770;DHT22;368;48.698;9.116;2023-04-01T02:36:15;7.40;99.90
770;DHT22;368;48.698;9.116;2023-04-01T02:38:43;7.20;99.90
770;DHT22;368;48.698;9.116;2023-04-01T02:41:12;7.20;99.90
770;DHT22;368;48.698;9.116;2023-04-01T02:43:40;7.60;99.90
770;DHT22;368;48.698;9.116;2023-04-01T02:46:06;7.20;99.90
770;DHT22;368;48.698;9.116;2023-04-01T02:48:33;7.40;99.90
770;DHT22;368;48.698;9.116;2023-04-01T02:51:00;7.30;99.90
770;DHT22;368;48.698;9.116;2023-04-01T02:53:27;7.40;99.90
770;DHT22;368;48.698;9.116;2023-04-01T02:55:54;7.50;99.90
770;DHT22;368;48.698;9.116;2023-04-01T02:58:22;7.40;99.90
770;DHT22;368;48.698;9.116;2023-04-01T03:00:49;7.30;99.90
770;DHT22;368;48.698;9.116;2023-04-01T03:03:16;7.40;99.90
770;DHT22;368;48.698;9.116;2023-04-01T03:05:43;7.40;99.90
770;DHT22;368;48.698;9.116;2023-04-01T03:08:09;7.30;99.90
770;DHT22;368;48.698;9.116;2023-04-01T03:10:37;7.50;99.90
770;DHT22;368;48.698;9.116;2023-04-01T03:13:04;7.20;99.90
770;DHT22;368;48.698;9.116;2023-04-01T03:15:33;7.50;99.90
770;DHT22;368;48.698;9.116;2023-04-01T03:17:59;7.30;99.90
770;DHT22;368;48.698;9.116;2023-04-01T03:20:26;7.30;99.90
770;DHT22;368;48.698;9.116;2023-04-01T03:22:53;7.40;99.90
770;DHT22;368;48.698;9.116;2023-04-01T03:25:20;7.40;99.90
770;DHT22;368;48.698;9.116;2023-04-01T03:27:47;7.20;99.90
770;DHT22;368;48.698;9.116;2023-04-01T03:30:14;7.20;99.90
770;DHT22;368;48.698;9.116;2023-04-01T03:32:42;7.10;99.90
770;DHT22;368;48.698;9.116;2023-04-01T03:35:09;7.40;99.90
770;DHT22;368;48.698;9.116;2023-04-01T03:37:36;7.30;99.90
770;DHT22;368;48.698;9.116;2023-04-01T03:40:05;7.20;99.90
770;DHT22;368;48.698;9.116;2023-04-01T03:42:32;7.10;99.90
770;DHT22;368;48.698;9.116;2023-04-01T03:44:58;7.20;99.90
770;DHT22;368;48.698;9.116;2023-04-01T03:47:25;7.10;99.90
770;DHT22;368;48.698;9.116;2023-04-01T03:49:53;7.20;99.90
770;DHT22;368;48.698;9.116;2023-04-01T03:52:20;7.20;99.90
770;DHT22;368;48.698;9.116;2023-04-01T03:54:47;7.00;99.90
770;DHT22;368;48.698;9.116;2023-04-01T03:57:14;7.00;99.90
770;DHT22;368;48.698;9.116;2023-04-01T03:59:41;7.10;99.90
770;DHT22;368;48.698;9.116;2023-04-01T04:02:08;6.90;99.90
770;DHT22;368;48.698;9.116;2023-04-01T04:04:35;7.10;99.90
770;DHT22;368;48.698;9.116;2023-04-01T04:07:03;7.10;99.90
770;DHT22;368;48.698;9.116;2023-04-01T04:09:30;7.10;99.90
770;DHT22;368;48.698;9.116;2023-04-01T04:11:57;6.80;99.90
770;DHT22;368;48.698;9.116;2023-04-01T04:14:24;7.00;99.90
770;DHT22;368;48.698;9.116;2023-04-01T04:16:51;6.60;99.90
770;DHT22;368;48.698;9.116;2023-04-01T04:19:18;6.60;99.90
770;DHT22;368;48.698;9.116;2023-04-01T04:21:44;6.70;99.90
770;DHT22;368;48.698;9.116;2023-04-01T04:24:13;6.80;99.90
770;DHT22;368;48.698;9.116;2023-04-01T04:26:40;6.80;99.90
770;DHT22;368;48.698;9.116;2023-04-01T04:29:07;6.70;99.90
770;DHT22;368;48.698;9.116;2023-04-01T04:31:34;6.60;99.90
770;DHT22;368;48.698;9.116;2023-04-01T04:34:01;6.70;99.90
770;DHT22;368;48.698;9.116;2023-04-01T04:36:27;6.60;99.90
770;DHT22;368;48.698;9.116;2023-04-01T04:38:54;6.70;99.90
770;DHT22;368;48.698;9.116;2023-04-01T04:41:24;6.50;99.90
770;DHT22;368;48.698;9.116;2023-04-01T04:43:53;6.60;99.90
770;DHT22;368;48.698;9.116;2023-04-01T04:46:21;6.70;99.90
770;DHT22;368;48.698;9.116;2023-04-01T04:48:50;7.00;99.90
770;DHT22;368;48.698;9.116;2023-04-01T04:51:18;6.90;99.90
770;DHT22;368;48.698;9.116;2023-04-01T04:53:45;6.90;99.90
770;DHT22;368;48.698;9.116;2023-04-01T04:56:12;6.90;99.90
770;DHT22;368;48.698;9.116;2023-04-01T04:58:40;6.60;99.90
770;DHT22;368;48.698;9.116;2023-04-01T05:01:09;6.70;99.90
770;DHT22;368;48.698;9.116;2023-04-01T05:03:37;6.70;99.90
770;DHT22;368;48.698;9.116;2023-04-01T05:06:05;6.70;99.90
770;DHT22;368;48.698;9.116;2023-04-01T05:08:32;6.70;99.90
770;DHT22;368;48.698;9.116;2023-04-01T05:11:00;6.90;99.90
770;DHT22;368;48.698;9.116;2023-04-01T05:13:27;6.80;99.90
770;DHT22;368;48.698;9.116;2023-04-01T05:15:56;6.60;99.90
770;DHT22;368;48.698;9.116;2023-04-01T05:18:23;6.90;99.90
770;DHT22;368;48.698;9.116;2023-04-01T05:20:51;6.90;99.90
770;DHT22;368;48.698;9.116;2023-04-01T05:23:19;6.90;99.90
770;DHT22;368;48.698;9.116;2023-04-01T05:25:47;7.00;99.90
770;DHT22;368;48.698;9.116;2023-04-01T05:28:14;7.00;99.90
770;DHT22;368;48.698;9.116;2023-04-01T05:30:42;7.30;99.90
770;DHT22;368;48.698;9.116;2023-04-01T05:33:12;7.20;99.90
770;DHT22;368;48.698;9.116;2023-04-01T05:35:39;7.40;99.90
770;DHT22;368;48.698;9.116;2023-04-01T05:38:06;7.20;99.90
770;DHT22;368;48.698;9.116;2023-04-01T05:40:33;7.20;99.90
770;DHT22;368;48.698;9.116;2023-04-01T05:43:00;7.20;99.90
770;DHT22;368;48.698;9.116;2023-04-01T05:45:27;7.30;99.90
770;DHT22;368;48.698;9.116;2023-04-01T05:47:54;7.40;99.90
770;DHT22;368;48.698;9.116;2023-04-01T05:50:22;7.50;99.90
770;DHT22;368;48.698;9.116;2023-04-01T05:52:49;7.50;99.90
770;DHT22;368;48.698;9.116;2023-04-01T05:55:16;7.70;99.90
770;DHT22;368;48.698;9.116;2023-04-01T05:57:44;8.20;99.90
770;DHT22;368;48.698;9.116;2023-04-01T06:00:12;8.50;99.90
770;DHT22;368;48.698;9.116;2023-04-01T06:02:40;8.70;99.90
770;DHT22;368;48.698;9.116;2023-04-01T06:05:14;8.60;99.90
770;DHT22;368;48.698;9.116;2023-04-01T06:07:43;8.80;99.90
770;DHT22;368;48.698;9.116;2023-04-01T06:10:13;8.60;99.90
770;DHT22;368;48.698;9.116;2023-04-01T06:12:56;8.60;99.90
770;DHT22;368;48.698;9.116;2023-04-01T06:15:35;8.60;99.90
770;DHT22;368;48.698;9.116;2023-04-01T06:21:33;8.60;99.90
770;DHT22;368;48.698;9.116;2023-04-01T06:24:19;8.50;99.90
770;DHT22;368;48.698;9.116;2023-04-01T06:26:56;8.70;99.90
770;DHT22;368;48.698;9.116;2023-04-01T06:29:54;8.30;99.90
770;DHT22;368;48.698;9.116;2023-04-01T06:32:39;8.30;99.90
770;DHT22;368;48.698;9.116;2023-04-01T06:35:20;8.30;99.90
770;DHT22;368;48.698;9.116;2023-04-01T06:38:17;8.20;99.90
770;DHT22;368;48.698;9.116;2023-04-01T06:41:15;8.30;99.90
770;DHT22;368;48.698;9.116;2023-04-01T06:43:51;8.00;99.90
770;DHT22;368;48.698;9.116;2023-04-01T06:46:31;8.10;99.90
770;DHT22;368;48.698;9.116;2023-04-01T06:49:27;8.00;99.90
770;DHT22;368;48.698;9.116;2023-04-01T06:52:01;8.20;99.90
770;DHT22;368;48.698;9.116;2023-04-01T06:54:32;8.30;99.90
770;DHT22;368;48.698;9.116;2023-04-01T06:57:05;8.30;99.90
770;DHT22;368;48.698;9.116;2023-04-01T06:59:36;8.50;99.90
770;DHT22;368;48.698;9.116;2023-04-01T07:02:10;8.50;99.90
770;DHT22;368;48.698;9.116;2023-04-01T07:04:44;8.30;99.90
770;DHT22;368;48.698;9.116;2023-04-01T07:07:19;8.30;99.90
770;DHT22;368;48.698;9.116;2023-04-01T07:09:51;8.40;99.90
770;DHT22;368;48.698;9.116;2023-04-01T07:12:27;8.50;99.90
770;DHT22;368;48.698;9.116;2023-04-01T07:14:56;8.60;99.90
770;DHT22;368;48.698;9.116;2023-04-01T07:17:28;8.40;99.90
770;DHT22;368;48.698;9.116;2023-04-01T07:20:01;8.60;99.90
770;DHT22;368;48.698;9.116;2023-04-01T07:22:32;8.40;99.90
770;DHT22;368;48.698;9.116;2023-04-01T07:25:03;8.40;99.90
770;DHT22;368;48.698;9.116;2023-04-01T07:27:33;8.30;99.90
770;DHT22;368;48.698;9.116;2023-04-01T07:30:01;8.50;99.90
770;DHT22;368;48.698;9.116;2023-04-01T07:32:35;8.50;99.90
770;DHT22;368;48.698;9.116;2023-04-01T07:35:13;8.60;99.90
770;DHT22;368;48.698;9.116;2023-04-01T07:37:50;8.40;99.90
770;DHT22;368;48.698;9.116;2023-04-01T07:40:28;8.50;99.90
770;DHT22;368;48.698;9.116;2023-04-01T07:43:32;8.60;99.90
770;DHT22;368;48.698;9.116;2023-04-01T07:46:09;8.50;99.90
770;DHT22;368;48.698;9.116;2023-04-01T07:48:44;8.80;99.90
770;DHT22;368;48.698;9.116;2023-04-01T07:51:17;8.60;99.90
770;DHT22;368;48.698;9.116;2023-04-01T07:53:49;8.70;99.90
770;DHT22;368;48.698;9.116;2023-04-01T07:56:21;8.60;99.90
770;DHT22;368;48.698;9.116;2023-04-01T07:58:58;8.80;99.90
770;DHT22;368;48.698;9.116;2023-04-01T08:01:32;9.20;99.90
770;DHT22;368;48.698;9.116;2023-04-01T08:04:17;8.80;99.90
770;DHT22;368;48.698;9.116;2023-04-01T08:06:52;8.70;99.90
770;DHT22;368;48.698;9.116;2023-04-01T08:09:26;8.90;99.90
770;DHT22;368;48.698;9.116;2023-04-01T08:12:04;9.10;99.90
770;DHT22;368;48.698;9.116;2023-04-01T08:14:43;9.00;99.90
770;DHT22;368;48.698;9.116;2023-04-01T08:17:17;8.70;99.90
770;DHT22;368;48.698;9.116;2023-04-01T08:19:56;8.50;99.90
770;DHT22;368;48.698;9.116;2023-04-01T08:22:30;8.50;99.90
770;DHT22;368;48.698;9.116;2023-04-01T08:25:02;8.80;99.90
770;DHT22;368;48.698;9.116;2023-04-01T08:27:36;8.80;99.90
770;DHT22;368;48.698;9.116;2023-04-01T08:30:16;8.80;99.90
770;DHT22;368;48.698;9.116;2023-04-01T08:32:47;9.00;99.90
770;DHT22;368;48.698;9.116;2023-04-01T08:35:20;8.70;99.90
770;DHT22;368;48.698;9.116;2023-04-01T08:37:50;8.40;99.90
770;DHT22;368;48.698;9.116;2023-04-01T08:43:25;8.60;99.90
770;DHT22;368;48.698;9.116;2023-04-01T08:46:17;8.60;99.90
770;DHT22;368;48.698;9.116;2023-04-01T08:49:05;8.40;99.90
770;DHT22;368;48.698;9.116;2023-04-01T08:51:58;8.10;99.90
770;DHT22;368;48.698;9.116;2023-04-01T08:55:00;8.20;99.90
770;DHT22;368;48.698;9.116;2023-04-01T08:57:39;8.00;99.90
770;DHT22;368;48.698;9.116;2023-04-01T09:00:22;8.00;99.90
770;DHT22;368;48.698;9.116;2023-04-01T09:03:18;7.80;99.90
770;DHT22;368;48.698;9.116;2023-04-01T09:06:21;8.00;99.90
770;DHT22;368;48.698;9.116;2023-04-01T09:09:13;8.20;99.90
770;DHT22;368;48.698;9.116;2023-04-01T09:12:10;8.30;99.90
770;DHT22;368;48.698;9.116;2023-04-01T09:18:13;8.50;99.90
770;DHT22;368;48.698;9.116;2023-04-01T09:20:58;8.70;99.90
770;DHT22;368;48.698;9.116;2023-04-01T09:23:43;8.70;99.90
770;DHT22;368;48.698;9.116;2023-04-01T09:26:25;8.80;99.90
770;DHT22;368;48.698;9.116;2023-04-01T09:29:02;9.20;99.90
770;DHT22;368;48.698;9.116;2023-04-01T09:32:00;9.40;99.90
770;DHT22;368;48.698;9.116;2023-04-01T09:34:43;9.30;99.90
770;DHT22;368;48.698;9.116;2023-04-01T09:37:34;9.50;99.90
770;DHT22;368;48.698;9.116;2023-04-01T09:40:21;9.20;99.90
770;DHT22;368;48.698;9.116;2023-04-01T09:46:18;9.20;99.90
770;DHT22;368;48.698;9.116;2023-04-01T09:49:13;9.20;99.90
770;DHT22;368;48.698;9.116;2023-04-01T09:51:50;9.10;99.90
770;DHT22;368;48.698;9.116;2023-04-01T09:54:39;9.10;99.90
770;DHT22;368;48.698;9.116;2023-04-01T09:57:42;9.30;99.90
770;DHT22;368;48.698;9.116;2023-04-01T10:00:36;9.20;99.90
770;DHT22;368;48.698;9.116;2023-04-01T10:03:34;9.30;99.90
770;DHT22;368;48.698;9.116;2023-04-01T10:15:45;9.10;99.90
770;DHT22;368;48.698;9.116;2023-04-01T10:24:43;9.20;99.90
770;DHT22;368;48.698;9.116;2023-04-01T10:30:35;9.70;99.90
770;DHT22;368;48.698;9.116;2023-04-01T10:36:40;9.70;99.90
770;DHT22;368;48.698;9.116;2023-04-01T10:39:34;10.00;99.90
770;DHT22;368;48.698;9.116;2023-04-01T10:42:27;10.00;99.90
770;DHT22;368;48.698;9.116;2023-04-01T10:48:21;10.30;99.90
770;DHT22;368;48.698;9.116;2023-04-01T10:51:10;10.30;99.90
770;DHT22;368;48.698;9.116;2023-04-01T10:53:46;10.10;99.90
770;DHT22;368;48.698;9.116;2023-04-01T10:56:36;10.40;99.90
770;DHT22;368;48.698;9.116;2023-04-01T10:59:45;10.40;99.90
770;DHT22;368;48.698;9.116;2023-04-01T11:12:35;9.90;99.90
770;DHT22;368;48.698;9.116;2023-04-01T11:21:44;9.70;99.90
770;DHT22;368;48.698;9.116;2023-04-01T11:24:36;9.60;99.90
770;DHT22;368;48.698;9.116;2023-04-01T11:27:23;10.00;99.90
770;DHT22;368;48.698;9.116;2023-04-01T11:30:06;10.00;99.90
770;DHT22;368;48.698;9.116;2023-04-01T11:32:43;10.00;99.90
770;DHT22;368;48.698;9.116;2023-04-01T11:35:29;9.90;99.90
770;DHT22;368;48.698;9.116;2023-04-01T11:38:07;10.40;99.90
770;DHT22;368;48.698;9.116;2023-04-01T11:40:46;10.70;99.90
770;DHT22;368;48.698;9.116;2023-04-01T11:43:22;10.40;99.90
770;DHT22;368;48.698;9.116;2023-04-01T11:45:58;10.90;99.90
770;DHT22;368;48.698;9.116;2023-04-01T11:48:41;10.80;99.90
770;DHT22;368;48.698;9.116;2023-04-01T11:51:29;10.40;99.90
770;DHT22;368;48.698;9.116;2023-04-01T11:54:09;10.50;99.90
770;DHT22;368;48.698;9.116;2023-04-01T11:56:53;10.30;99.90
770;DHT22;368;48.698;9.116;2023-04-01T11:59:54;10.30;99.90
770;DHT22;368;48.698;9.116;2023-04-01T12:02:32;10.40;99.90
770;DHT22;368;48.698;9.116;2023-04-01T12:08:13;10.80;99.90
770;DHT22;368;48.698;9.116;2023-04-01T12:10:48;10.90;99.90
770;DHT22;368;48.698;9.116;2023-04-01T12:13:31;10.90;99.90
770;DHT22;368;48.698;9.116;2023-04-01T12:19:04;11.30;99.90
770;DHT22;368;48.698;9.116;2023-04-01T12:21:37;10.70;99.90
770;DHT22;368;48.698;9.116;2023-04-01T12:24:35;10.60;99.90
770;DHT22;368;48.698;9.116;2023-04-01T12:30:11;10.70;99.90
770;DHT22;368;48.698;9.116;2023-04-01T12:32:46;10.70;99.90
770;DHT22;368;48.698;9.116;2023-04-01T12:35:20;10.20;99.90
770;DHT22;368;48.698;9.116;2023-04-01T12:38:03;10.40;99.90
770;DHT22;368;48.698;9.116;2023-04-01T12:40:50;10.50;99.90
770;DHT22;368;48.698;9.116;2023-04-01T12:43:33;10.60;99.90
770;DHT22;368;48.698;9.116;2023-04-01T12:46:13;10.70;99.90
770;DHT22;368;48.698;9.116;2023-04-01T12:49:10;11.50;99.90
770;DHT22;368;48.698;9.116;2023-04-01T12:51:58;12.20;99.90
770;DHT22;368;48.698;9.116;2023-04-01T12:54:52;12.10;99.90
770;DHT22;368;48.698;9.116;2023-04-01T12:57:39;12.20;99.90
770;DHT22;368;48.698;9.116;2023-04-01T13:00:30;12.10;99.90
770;DHT22;368;48.698;9.116;2023-04-01T13:03:24;13.00;99.90
770;DHT22;368;48.698;9.116;2023-04-01T13:06:26;12.60;99.90
770;DHT22;368;48.698;9.116;2023-04-01T13:09:03;12.70;99.20
770;DHT22;368;48.698;9.116;2023-04-01T13:11:42;12.50;99.20
770;DHT22;368;48.698;9.116;2023-04-01T13:14:31;12.50;99.00
770;DHT22;368;48.698;9.116;2023-04-01T13:17:11;12.60;99.50
770;DHT22;368;48.698;9.116;2023-04-01T13:19:44;12.50;98.60
770;DHT22;368;48.698;9.116;2023-04-01T13:22:19;12.40;98.60
770;DHT22;368;48.698;9.116;2023-04-01T13:24:51;12.30;99.70
770;DHT22;368;48.698;9.116;2023-04-01T13:27:27;12.50;99.90
770;DHT22;368;48.698;9.116;2023-04-01T13:30:03;12.40;98.70
770;DHT22;368;48.698;9.116;2023-04-01T13:32:37;12.20;99.50
770;DHT22;368;48.698;9.116;2023-04-01T13:35:25;12.00;99.90
770;DHT22;368;48.698;9.116;2023-04-01T13:38:05;11.70;99.60
770;DHT22;368;48.698;9.116;2023-04-01T13:40:40;11.40;99.90
770;DHT22;368;48.698;9.116;2023-04-01T13:43:14;11.40;99.90
770;DHT22;368;48.698;9.116;2023-04-01T13:45:55;11.20;99.90
770;DHT22;368;48.698;9.116;2023-04-01T13:48:40;11.60;99.90
770;DHT22;368;48.698;9.116;2023-04-01T13:51:40;11.90;99.90
770;DHT22;368;48.698;9.116;2023-04-01T13:54:27;11.90;99.50
770;DHT22;368;48.698;9.116;2023-04-01T13:57:12;11.80;99.90
770;DHT22;368;48.698;9.116;2023-04-01T14:02:47;11.60;99.90
770;DHT22;368;48.698;9.116;2023-04-01T14:05:31;11.70;99.90
770;DHT22;368;48.698;9.116;2023-04-01T14:08:08;11.40;99.90
770;DHT22;368;48.698;9.116;2023-04-01T14:10:42;11.30;99.90
770;DHT22;368;48.698;9.116;2023-04-01T14:13:15;11.50;99.90
770;DHT22;368;48.698;9.116;2023-04-01T14:16:05;11.60;99.90
770;DHT22;368;48.698;9.116;2023-04-01T14:19:07;11.40;99.90
770;DHT22;368;48.698;9.116;2023-04-01T14:21:38;11.20;99.90
770;DHT22;368;48.698;9.116;2023-04-01T14:24:20;11.20;99.90
770;DHT22;368;48.698;9.116;2023-04-01T14:27:18;11.10;99.90
770;DHT22;368;48.698;9.116;2023-04-01T14:29:59;11.10;99.90
770;DHT22;368;48.698;9.116;2023-04-01T14:32:39;11.00;99.90
770;DHT22;368;48.698;9.116;2023-04-01T14:35:22;11.40;99.90
770;DHT22;368;48.698;9.116;2023-04-01T14:38:12;11.00;99.90
770;DHT22;368;48.698;9.116;2023-04-01T14:40:49;11.10;99.90
770;DHT22;368;48.698;9.116;2023-04-01T14:43:48;11.10;99.90
770;DHT22;368;48.698;9.116;2023-04-01T14:46:33;10.70;99.90
770;DHT22;368;48.698;9.116;2023-04-01T14:49:05;11.00;99.90
770;DHT22;368;48.698;9.116;2023-04-01T14:51:41;11.00;99.90
770;DHT22;368;48.698;9.116;2023-04-01T14:54:13;11.20;99.90
770;DHT22;368;48.698;9.116;2023-04-01T14:56:49;11.10;99.90
770;DHT22;368;48.698;9.116;2023-04-01T14:59:27;11.00;99.90
770;DHT22;368;48.698;9.116;2023-04-01T15:01:59;10.90;99.90
770;DHT22;368;48.698;9.116;2023-04-01T15:04:53;10.60;99.90
770;DHT22;368;48.698;9.116;2023-04-01T15:07:46;10.80;99.90
770;DHT22;368;48.698;9.116;2023-04-01T15:10:32;10.60;99.90
770;DHT22;368;48.698;9.116;2023-04-01T15:13:12;10.50;99.90
770;DHT22;368;48.698;9.116;2023-04-01T15:15:51;10.40;99.90
770;DHT22;368;48.698;9.116;2023-04-01T15:18:35;10.50;99.90
770;DHT22;368;48.698;9.116;2023-04-01T15:21:18;10.60;99.90
770;DHT22;368;48.698;9.116;2023-04-01T15:23:56;10.50;99.90
770;DHT22;368;48.698;9.116;2023-04-01T15:26:47;10.50;99.90
770;DHT22;368;48.698;9.116;2023-04-01T15:29:40;10.60;99.90
770;DHT22;368;48.698;9.116;2023-04-01T15:32:17;10.60;99.90
770;DHT22;368;48.698;9.116;2023-04-01T15:34:50;10.60;99.90
770;DHT22;368;48.698;9.116;2023-04-01T15:37:29;10.80;99.90
770;DHT22;368;48.698;9.116;2023-04-01T15:40:06;10.70;99.90
770;DHT22;368;48.698;9.116;2023-04-01T15:42:54;10.80;99.90
770;DHT22;368;48.698;9.116;2023-04-01T15:45:33;10.60;99.90
770;DHT22;368;48.698;9.116;2023-04-01T15:48:19;10.50;99.90
770;DHT22;368;48.698;9.116;2023-04-01T15:50:58;10.60;99.90
770;DHT22;368;48.698;9.116;2023-04-01T15:53:43;10.50;99.90
770;DHT22;368;48.698;9.116;2023-04-01T15:56:38;10.50;99.90
770;DHT22;368;48.698;9.116;2023-04-01T15:59:17;10.40;99.90
770;DHT22;368;48.698;9.116;2023-04-01T16:01:53;10.10;99.90
770;DHT22;368;48.698;9.116;2023-04-01T16:04:46;10.10;99.90
770;DHT22;368;48.698;9.116;2023-04-01T16:07:30;9.90;99.90
770;DHT22;368;48.698;9.116;2023-04-01T16:10:09;9.70;99.90
770;DHT22;368;48.698;9.116;2023-04-01T16:12:52;9.70;99.90
770;DHT22;368;48.698;9.116;2023-04-01T16:15:25;10.00;99.90
770;DHT22;368;48.698;9.116;2023-04-01T16:18:14;9.70;99.90
770;DHT22;368;48.698;9.116;2023-04-01T16:20:53;9.70;99.90
770;DHT22;368;48.698;9.116;2023-04-01T16:23:25;9.60;99.90
770;DHT22;368;48.698;9.116;2023-04-01T16:26:02;9.60;99.90
770;DHT22;368;48.698;9.116;2023-04-01T16:28:36;9.50;99.90
770;DHT22;368;48.698;9.116;2023-04-01T16:31:10;9.90;99.90
770;DHT22;368;48.698;9.116;2023-04-01T16:33:46;10.00;99.90
770;DHT22;368;48.698;9.116;2023-04-01T16:36:24;9.90;99.90
770;DHT22;368;48.698;9.116;2023-04-01T16:39:02;9.70;99.90
770;DHT22;368;48.698;9.116;2023-04-01T16:41:35;10.00;99.90
770;DHT22;368;48.698;9.116;2023-04-01T16:44:13;9.70;99.90
770;DHT22;368;48.698;9.116;2023-04-01T16:46:41;9.90;99.90
770;DHT22;368;48.698;9.116;2023-04-01T16:49:24;10.00;99.90
770;DHT22;368;48.698;9.116;2023-04-01T16:51:57;10.00;99.90
770;DHT22;368;48.698;9.116;2023-04-01T16:54:29;9.80;99.90
770;DHT22;368;48.698;9.116;2023-04-01T16:57:10;9.80;99.90
770;DHT22;368;48.698;9.116;2023-04-01T16:59:46;10.10;99.90
770;DHT22;368;48.698;9.116;2023-04-01T17:02:15;9.90;99.90
770;DHT22;368;48.698;9.116;2023-04-01T17:04:45;10.00;99.90
770;DHT22;368;48.698;9.116;2023-04-01T17:07:24;9.90;99.90
770;DHT22;368;48.698;9.116;2023-04-01T17:10:04;9.90;99.90
770;DHT22;368;48.698;9.116;2023-04-01T17:12:38;9.80;99.90
770;DHT22;368;48.698;9.116;2023-04-01T17:15:17;9.80;99.90
770;DHT22;368;48.698;9.116;2023-04-01T17:17:51;9.80;99.90
770;DHT22;368;48.698;9.116;2023-04-01T17:20:41;9.60;99.90
770;DHT22;368;48.698;9.116;2023-04-01T17:23:20;9.90;99.90
770;DHT22;368;48.698;9.116;2023-04-01T17:26:00;9.70;99.90
770;DHT22;368;48.698;9.116;2023-04-01T17:28:41;9.70;99.90
770;DHT22;368;48.698;9.116;2023-04-01T17:31:18;9.70;99.90
770;DHT22;368;48.698;9.116;2023-04-01T17:34:01;9.60;99.90
770;DHT22;368;48.698;9.116;2023-04-01T17:36:47;9.40;99.90
770;DHT22;368;48.698;9.116;2023-04-01T17:39:25;9.70;99.90
770;DHT22;368;48.698;9.116;2023-04-01T17:41:59;9.60;99.90
770;DHT22;368;48.698;9.116;2023-04-01T17:44:37;9.70;99.90
770;DHT22;368;48.698;9.116;2023-04-01T17:47:31;9.30;99.90
770;DHT22;368;48.698;9.116;2023-04-01T17:50:14;9.10;99.90
770;DHT22;368;48.698;9.116;2023-04-01T17:52:48;9.30;99.90
770;DHT22;368;48.698;9.116;2023-04-01T17:58:29;9.20;99.90
770;DHT22;368;48.698;9.116;2023-04-01T18:01:06;9.30;99.90
770;DHT22;368;48.698;9.116;2023-04-01T18:03:55;9.40;99.90
770;DHT22;368;48.698;9.116;2023-04-01T18:06:31;9.30;99.90
770;DHT22;368;48.698;9.116;2023-04-01T18:09:06;9.40;99.90
770;DHT22;368;48.698;9.116;2023-04-01T18:11:41;9.10;99.90
770;DHT22;368;48.698;9.116;2023-04-01T18:14:45;9.40;99.90
770;DHT22;368;48.698;9.116;2023-04-01T18:17:21;9.20;99.90
770;DHT22;368;48.698;9.116;2023-04-01T18:20:02;9.40;99.90
770;DHT22;368;48.698;9.116;2023-04-01T18:22:38;9.10;99.90
770;DHT22;368;48.698;9.116;2023-04-01T18:25:17;8.70;99.90
770;DHT22;368;48.698;9.116;2023-04-01T18:27:47;8.40;99.90
770;DHT22;368;48.698;9.116;2023-04-01T18:30:20;8.40;99.90
770;DHT22;368;48.698;9.116;2023-04-01T18:32:51;8.20;99.90
770;DHT22;368;48.698;9.116;2023-04-01T18:35:29;8.10;99.90
770;DHT22;368;48.698;9.116;2023-04-01T18:38:03;8.20;99.90
770;DHT22;368;48.698;9.116;2023-04-01T18:40:35;8.30;99.90
770;DHT22;368;48.698;9.116;2023-04-01T18:43:11;8.00;99.90
770;DHT22;368;48.698;9.116;2023-04-01T18:45:46;8.00;99.90
770;DHT22;368;48.698;9.116;2023-04-01T18:48:33;8.00;99.90
770;DHT22;368;48.698;9.116;2023-04-01T18:51:12;8.10;99.90
770;DHT22;368;48.698;9.116;2023-04-01T18:53:43;8.10;99.90
770;DHT22;368;48.698;9.116;2023-04-01T18:56:15;7.70;99.90
770;DHT22;368;48.698;9.116;2023-04-01T18:58:53;8.00;99.90
770;DHT22;368;48.698;9.116;2023-04-01T19:01:26;7.90;99.90